sensor_id;sensor_type;location;lat;lon;timestamp;temperature;humidity
12307;DHT22;6216;51.146;7.008;2022-07-21T00:00:14;23.50;99.90
12307;DHT22;6216;51.146;7.008;2022-07-21T00:02:45;23.50;99.90
12307;DHT22;6216;51.146;7.008;2022-07-21T00:05:13;23.50;99.90
12307;DHT22;6216;51.146;7.008;2022-07-21T00:07:41;23.50;99.90
12307;DHT22;6216;51.146;7.008;2022-07-21T00:10:09;23.50;99.90
12307;DHT22;6216;51.146;7.008;2022-07-21T00:12:37;23.50;99.90
12307;DHT22;6216;51.146;7.008;2022-07-21T00:15:06;23.50;99.90
12307;DHT22;6216;51.146;7.008;2022-07-21T00:17:34;23.40;99.90
12307;DHT22;6216;51.146;7.008;2022-07-21T00:20:06;23.30;99.90
12307;DHT22;6216;51.146;7.008;2022-07-21T00:22:34;23.20;99.90
12307;DHT22;6216;51.146;7.008;2022-07-21T00:25:02;23.20;99.90
12307;DHT22;6216;51.146;7.008;2022-07-21T00:27:30;23.20;99.90
12307;DHT22;6216;51.146;7.008;2022-07-21T00:29:58;23.30;99.90
12307;DHT22;6216;51.146;7.008;2022-07-21T00:32:27;23.40;99.90
12307;DHT22;6216;51.146;7.008;2022-07-21T00:35:02;23.30;99.90
12307;DHT22;6216;51.146;7.008;2022-07-21T00:37:31;23.40;99.90
12307;DHT22;6216;51.146;7.008;2022-07-21T00:40:00;23.30;99.90
12307;DHT22;6216;51.146;7.008;2022-07-21T00:42:29;23.30;99.90
12307;DHT22;6216;51.146;7.008;2022-07-21T00:44:58;23.30;99.90
12307;DHT22;6216;51.146;7.008;2022-07-21T00:47:28;23.30;99.90
12307;DHT22;6216;51.146;7.008;2022-07-21T00:49:59;23.30;99.90
12307;DHT22;6216;51.146;7.008;2022-07-21T00:52:27;23.20;99.90
12307;DHT22;6216;51.146;7.008;2022-07-21T00:54:56;23.10;99.90
12307;DHT22;6216;51.146;7.008;2022-07-21T00:57:24;23.00;99.90
12307;DHT22;6216;51.146;7.008;2022-07-21T00:59:52;23.00;99.90
12307;DHT22;6216;51.146;7.008;2022-07-21T01:02:19;23.00;99.90
12307;DHT22;6216;51.146;7.008;2022-07-21T01:04:47;23.00;99.90
12307;DHT22;6216;51.146;7.008;2022-07-21T01:07:15;22.90;99.90
12307;DHT22;6216;51.146;7.008;2022-07-21T01:09:46;22.80;99.90
12307;DHT22;6216;51.146;7.008;2022-07-21T01:12:15;22.70;99.90
12307;DHT22;6216;51.146;7.008;2022-07-21T01:14:43;22.60;99.90
12307;DHT22;6216;51.146;7.008;2022-07-21T01:17:11;22.50;99.90
12307;DHT22;6216;51.146;7.008;2022-07-21T01:19:39;22.50;99.90
12307;DHT22;6216;51.146;7.008;2022-07-21T01:22:08;22.40;99.90
12307;DHT22;6216;51.146;7.008;2022-07-21T01:24:37;22.40;99.90
12307;DHT22;6216;51.146;7.008;2022-07-21T01:27:04;22.40;99.90
12307;DHT22;6216;51.146;7.008;2022-07-21T01:29:32;22.50;99.90
12307;DHT22;6216;51.146;7.008;2022-07-21T01:32:00;22.50;99.90
12307;DHT22;6216;51.146;7.008;2022-07-21T01:34:29;22.50;99.90
12307;DHT22;6216;51.146;7.008;2022-07-21T01:36:57;22.50;99.90
12307;DHT22;6216;51.146;7.008;2022-07-21T01:39:26;22.50;99.90
12307;DHT22;6216;51.146;7.008;2022-07-21T01:42:11;22.50;99.90
12307;DHT22;6216;51.146;7.008;2022-07-21T01:44:39;22.50;99.90
12307;DHT22;6216;51.146;7.008;2022-07-21T01:47:07;22.50;99.90
12307;DHT22;6216;51.146;7.008;2022-07-21T01:49:35;22.50;99.90
12307;DHT22;6216;51.146;7.008;2022-07-21T01:52:03;22.50;99.90
12307;DHT22;6216;51.146;7.008;2022-07-21T01:54:33;22.50;99.90
12307;DHT22;6216;51.146;7.008;2022-07-21T01:57:01;22.40;99.90
12307;DHT22;6216;51.146;7.008;2022-07-21T01:59:28;22.20;99.90
12307;DHT22;6216;51.146;7.008;2022-07-21T02:01:56;22.20;99.90
12307;DHT22;6216;51.146;7.008;2022-07-21T02:04:24;22.10;99.90
12307;DHT22;6216;51.146;7.008;2022-07-21T02:06:52;22.10;99.90
12307;DHT22;6216;51.146;7.008;2022-07-21T02:09:20;22.20;99.90
12307;DHT22;6216;51.146;7.008;2022-07-21T02:11:49;22.20;99.90
12307;DHT22;6216;51.146;7.008;2022-07-21T02:14:17;22.20;99.90
12307;DHT22;6216;51.146;7.008;2022-07-21T02:16:45;22.10;99.90
12307;DHT22;6216;51.146;7.008;2022-07-21T02:19:14;22.10;99.90
12307;DHT22;6216;51.146;7.008;2022-07-21T02:21:42;22.10;99.90
12307;DHT22;6216;51.146;7.008;2022-07-21T02:24:09;22.10;99.90
12307;DHT22;6216;51.146;7.008;2022-07-21T02:26:37;22.10;99.90
12307;DHT22;6216;51.146;7.008;2022-07-21T02:29:06;22.10;99.90
12307;DHT22;6216;51.146;7.008;2022-07-21T02:31:34;22.10;99.90
12307;DHT22;6216;51.146;7.008;2022-07-21T02:34:02;22.10;99.90
12307;DHT22;6216;51.146;7.008;2022-07-21T02:36:30;22.10;99.90
12307;DHT22;6216;51.146;7.008;2022-07-21T02:38:58;22.10;99.90
12307;DHT22;6216;51.146;7.008;2022-07-21T02:41:26;22.10;99.90
12307;DHT22;6216;51.146;7.008;2022-07-21T02:43:54;22.10;99.90
12307;DHT22;6216;51.146;7.008;2022-07-21T02:46:23;22.10;99.90
12307;DHT22;6216;51.146;7.008;2022-07-21T02:48:51;22.10;99.90
12307;DHT22;6216;51.146;7.008;2022-07-21T02:51:19;22.10;99.90
12307;DHT22;6216;51.146;7.008;2022-07-21T02:53:47;22.00;99.90
12307;DHT22;6216;51.146;7.008;2022-07-21T02:56:15;22.00;99.90
12307;DHT22;6216;51.146;7.008;2022-07-21T02:58:43;22.00;99.90
12307;DHT22;6216;51.146;7.008;2022-07-21T03:01:11;22.00;99.90
12307;DHT22;6216;51.146;7.008;2022-07-21T03:03:40;22.00;99.90
12307;DHT22;6216;51.146;7.008;2022-07-21T03:06:08;22.00;99.90
12307;DHT22;6216;51.146;7.008;2022-07-21T03:08:36;22.00;99.90
12307;DHT22;6216;51.146;7.008;2022-07-21T03:11:04;22.00;99.90
12307;DHT22;6216;51.146;7.008;2022-07-21T03:13:33;21.90;99.90
12307;DHT22;6216;51.146;7.008;2022-07-21T03:16:01;21.90;99.90
12307;DHT22;6216;51.146;7.008;2022-07-21T03:18:29;21.90;99.90
12307;DHT22;6216;51.146;7.008;2022-07-21T03:20:58;21.90;99.90
12307;DHT22;6216;51.146;7.008;2022-07-21T03:23:26;21.90;99.90
12307;DHT22;6216;51.146;7.008;2022-07-21T03:25:54;21.90;99.90
12307;DHT22;6216;51.146;7.008;2022-07-21T03:28:22;21.80;99.90
12307;DHT22;6216;51.146;7.008;2022-07-21T03:30:50;21.90;99.90
12307;DHT22;6216;51.146;7.008;2022-07-21T03:33:18;21.90;99.90
12307;DHT22;6216;51.146;7.008;2022-07-21T03:35:46;21.80;99.90
12307;DHT22;6216;51.146;7.008;2022-07-21T03:38:15;21.80;99.90
12307;DHT22;6216;51.146;7.008;2022-07-21T03:40:43;21.80;99.90
12307;DHT22;6216;51.146;7.008;2022-07-21T03:43:11;21.70;99.90
12307;DHT22;6216;51.146;7.008;2022-07-21T03:45:39;21.70;99.90
12307;DHT22;6216;51.146;7.008;2022-07-21T03:48:07;21.70;99.90
12307;DHT22;6216;51.146;7.008;2022-07-21T03:50:37;21.60;99.90
12307;DHT22;6216;51.146;7.008;2022-07-21T03:53:07;21.70;99.90
12307;DHT22;6216;51.146;7.008;2022-07-21T03:55:36;21.70;99.90
12307;DHT22;6216;51.146;7.008;2022-07-21T03:58:05;21.70;99.90
12307;DHT22;6216;51.146;7.008;2022-07-21T04:00:36;21.50;99.90
12307;DHT22;6216;51.146;7.008;2022-07-21T04:03:05;21.40;99.90
12307;DHT22;6216;51.146;7.008;2022-07-21T04:05:34;21.20;99.90
12307;DHT22;6216;51.146;7.008;2022-07-21T04:08:02;21.10;99.90
12307;DHT22;6216;51.146;7.008;2022-07-21T04:10:32;21.00;99.90
12307;DHT22;6216;51.146;7.008;2022-07-21T04:13:04;21.00;99.90
12307;DHT22;6216;51.146;7.008;2022-07-21T04:15:33;21.10;99.90
12307;DHT22;6216;51.146;7.008;2022-07-21T04:18:02;21.10;99.90
12307;DHT22;6216;51.146;7.008;2022-07-21T04:20:30;21.10;99.90
12307;DHT22;6216;51.146;7.008;2022-07-21T04:22:58;21.20;99.90
12307;DHT22;6216;51.146;7.008;2022-07-21T04:25:26;21.00;99.90
12307;DHT22;6216;51.146;7.008;2022-07-21T04:27:54;20.90;99.90
12307;DHT22;6216;51.146;7.008;2022-07-21T04:30:24;20.80;99.90
12307;DHT22;6216;51.146;7.008;2022-07-21T04:32:52;20.80;99.90
12307;DHT22;6216;51.146;7.008;2022-07-21T04:35:20;20.90;99.90
12307;DHT22;6216;51.146;7.008;2022-07-21T04:37:48;20.90;99.90
12307;DHT22;6216;51.146;7.008;2022-07-21T04:40:16;20.90;99.90
12307;DHT22;6216;51.146;7.008;2022-07-21T04:42:44;20.90;99.90
12307;DHT22;6216;51.146;7.008;2022-07-21T04:45:14;20.90;99.90
12307;DHT22;6216;51.146;7.008;2022-07-21T04:47:46;20.90;99.90
12307;DHT22;6216;51.146;7.008;2022-07-21T04:50:14;21.00;99.90
12307;DHT22;6216;51.146;7.008;2022-07-21T04:52:43;20.90;99.90
12307;DHT22;6216;51.146;7.008;2022-07-21T04:55:11;20.90;99.90
12307;DHT22;6216;51.146;7.008;2022-07-21T04:57:41;20.90;99.90
12307;DHT22;6216;51.146;7.008;2022-07-21T05:00:11;21.00;99.90
12307;DHT22;6216;51.146;7.008;2022-07-21T05:02:40;20.90;99.90
12307;DHT22;6216;51.146;7.008;2022-07-21T05:05:10;20.80;99.90
12307;DHT22;6216;51.146;7.008;2022-07-21T05:07:38;20.80;99.90
12307;DHT22;6216;51.146;7.008;2022-07-21T05:10:08;20.80;99.90
12307;DHT22;6216;51.146;7.008;2022-07-21T05:12:36;20.80;99.90
12307;DHT22;6216;51.146;7.008;2022-07-21T05:15:06;20.70;99.90
12307;DHT22;6216;51.146;7.008;2022-07-21T05:17:34;20.70;99.90
12307;DHT22;6216;51.146;7.008;2022-07-21T05:20:02;20.80;99.90
12307;DHT22;6216;51.146;7.008;2022-07-21T05:22:31;20.70;99.90
12307;DHT22;6216;51.146;7.008;2022-07-21T05:24:59;20.70;99.90
12307;DHT22;6216;51.146;7.008;2022-07-21T05:27:27;20.80;99.90
12307;DHT22;6216;51.146;7.008;2022-07-21T05:29:55;20.80;99.90
12307;DHT22;6216;51.146;7.008;2022-07-21T05:32:23;20.90;99.90
12307;DHT22;6216;51.146;7.008;2022-07-21T05:34:53;21.00;99.90
12307;DHT22;6216;51.146;7.008;2022-07-21T05:37:21;21.10;99.90
12307;DHT22;6216;51.146;7.008;2022-07-21T05:39:50;21.00;99.90
12307;DHT22;6216;51.146;7.008;2022-07-21T05:42:21;21.00;99.90
12307;DHT22;6216;51.146;7.008;2022-07-21T05:44:54;21.10;99.90
12307;DHT22;6216;51.146;7.008;2022-07-21T05:47:25;21.10;99.90
12307;DHT22;6216;51.146;7.008;2022-07-21T05:49:54;21.10;99.90
12307;DHT22;6216;51.146;7.008;2022-07-21T05:52:22;21.10;99.90
12307;DHT22;6216;51.146;7.008;2022-07-21T05:54:54;21.10;99.90
12307;DHT22;6216;51.146;7.008;2022-07-21T05:57:24;21.10;99.90
12307;DHT22;6216;51.146;7.008;2022-07-21T05:59:52;21.00;99.90
12307;DHT22;6216;51.146;7.008;2022-07-21T06:02:20;20.90;99.90
12307;DHT22;6216;51.146;7.008;2022-07-21T06:04:48;21.00;99.90
12307;DHT22;6216;51.146;7.008;2022-07-21T06:07:16;20.90;99.90
12307;DHT22;6216;51.146;7.008;2022-07-21T06:09:44;20.80;99.90
12307;DHT22;6216;51.146;7.008;2022-07-21T06:12:13;20.90;99.90
12307;DHT22;6216;51.146;7.008;2022-07-21T06:14:41;20.80;99.90
12307;DHT22;6216;51.146;7.008;2022-07-21T06:17:09;20.80;99.90
12307;DHT22;6216;51.146;7.008;2022-07-21T06:19:37;20.70;99.90
12307;DHT22;6216;51.146;7.008;2022-07-21T06:22:05;20.70;99.90
12307;DHT22;6216;51.146;7.008;2022-07-21T06:24:32;20.70;99.90
12307;DHT22;6216;51.146;7.008;2022-07-21T06:27:00;20.50;99.90
12307;DHT22;6216;51.146;7.008;2022-07-21T06:29:33;20.40;99.90
12307;DHT22;6216;51.146;7.008;2022-07-21T06:32:01;20.30;99.90
12307;DHT22;6216;51.146;7.008;2022-07-21T06:34:29;20.30;99.90
12307;DHT22;6216;51.146;7.008;2022-07-21T06:36:57;20.20;99.90
12307;DHT22;6216;51.146;7.008;2022-07-21T06:39:25;20.30;99.90
12307;DHT22;6216;51.146;7.008;2022-07-21T06:41:52;20.20;99.90
12307;DHT22;6216;51.146;7.008;2022-07-21T06:44:20;20.20;99.90
12307;DHT22;6216;51.146;7.008;2022-07-21T06:46:52;20.20;99.90
12307;DHT22;6216;51.146;7.008;2022-07-21T06:49:21;20.30;99.90
12307;DHT22;6216;51.146;7.008;2022-07-21T06:51:49;20.30;99.90
12307;DHT22;6216;51.146;7.008;2022-07-21T06:54:17;20.40;99.90
12307;DHT22;6216;51.146;7.008;2022-07-21T06:56:45;20.60;99.90
12307;DHT22;6216;51.146;7.008;2022-07-21T06:59:13;20.70;99.90
12307;DHT22;6216;51.146;7.008;2022-07-21T07:01:41;20.80;99.90
12307;DHT22;6216;51.146;7.008;2022-07-21T07:04:11;20.80;99.90
12307;DHT22;6216;51.146;7.008;2022-07-21T07:06:39;20.90;99.90
12307;DHT22;6216;51.146;7.008;2022-07-21T07:09:07;21.00;99.90
12307;DHT22;6216;51.146;7.008;2022-07-21T07:11:35;21.00;99.90
12307;DHT22;6216;51.146;7.008;2022-07-21T07:14:03;21.10;99.90
12307;DHT22;6216;51.146;7.008;2022-07-21T07:16:44;21.00;99.90
12307;DHT22;6216;51.146;7.008;2022-07-21T07:19:13;21.00;99.90
12307;DHT22;6216;51.146;7.008;2022-07-21T07:21:41;20.90;99.90
12307;DHT22;6216;51.146;7.008;2022-07-21T07:24:09;20.90;99.90
12307;DHT22;6216;51.146;7.008;2022-07-21T07:26:37;20.80;99.90
12307;DHT22;6216;51.146;7.008;2022-07-21T07:29:05;20.80;99.90
12307;DHT22;6216;51.146;7.008;2022-07-21T07:31:33;20.80;99.90
12307;DHT22;6216;51.146;7.008;2022-07-21T07:34:02;20.90;99.90
12307;DHT22;6216;51.146;7.008;2022-07-21T07:36:31;21.00;99.90
12307;DHT22;6216;51.146;7.008;2022-07-21T07:39:00;21.00;99.90
12307;DHT22;6216;51.146;7.008;2022-07-21T07:41:28;21.00;99.90
12307;DHT22;6216;51.146;7.008;2022-07-21T07:43:58;20.90;99.90
12307;DHT22;6216;51.146;7.008;2022-07-21T07:46:27;20.90;99.90
12307;DHT22;6216;51.146;7.008;2022-07-21T07:48:55;20.90;99.90
12307;DHT22;6216;51.146;7.008;2022-07-21T07:51:30;20.90;99.90
12307;DHT22;6216;51.146;7.008;2022-07-21T07:53:58;21.00;99.90
12307;DHT22;6216;51.146;7.008;2022-07-21T07:56:27;21.00;99.90
12307;DHT22;6216;51.146;7.008;2022-07-21T07:58:55;21.00;99.90
12307;DHT22;6216;51.146;7.008;2022-07-21T08:01:24;21.10;99.90
12307;DHT22;6216;51.146;7.008;2022-07-21T08:03:52;21.20;99.90
12307;DHT22;6216;51.146;7.008;2022-07-21T08:06:20;21.30;99.90
12307;DHT22;6216;51.146;7.008;2022-07-21T08:08:50;21.40;99.90
12307;DHT22;6216;51.146;7.008;2022-07-21T08:11:18;21.50;99.90
12307;DHT22;6216;51.146;7.008;2022-07-21T08:13:46;21.60;99.90
12307;DHT22;6216;51.146;7.008;2022-07-21T08:16:14;21.70;99.90
12307;DHT22;6216;51.146;7.008;2022-07-21T08:18:43;21.70;99.90
12307;DHT22;6216;51.146;7.008;2022-07-21T08:21:14;21.70;99.90
12307;DHT22;6216;51.146;7.008;2022-07-21T08:23:42;21.80;99.90
12307;DHT22;6216;51.146;7.008;2022-07-21T08:26:12;21.80;99.90
12307;DHT22;6216;51.146;7.008;2022-07-21T08:28:40;21.90;99.90
12307;DHT22;6216;51.146;7.008;2022-07-21T08:31:08;22.00;99.90
12307;DHT22;6216;51.146;7.008;2022-07-21T08:33:35;22.20;99.90
12307;DHT22;6216;51.146;7.008;2022-07-21T08:36:04;22.30;99.90
12307;DHT22;6216;51.146;7.008;2022-07-21T08:38:32;22.30;99.90
12307;DHT22;6216;51.146;7.008;2022-07-21T08:41:00;22.30;99.90
12307;DHT22;6216;51.146;7.008;2022-07-21T08:43:30;22.20;99.90
12307;DHT22;6216;51.146;7.008;2022-07-21T08:45:58;22.20;99.90
12307;DHT22;6216;51.146;7.008;2022-07-21T08:48:27;22.20;99.90
12307;DHT22;6216;51.146;7.008;2022-07-21T08:50:56;22.20;99.90
12307;DHT22;6216;51.146;7.008;2022-07-21T08:53:24;22.20;99.90
12307;DHT22;6216;51.146;7.008;2022-07-21T08:55:53;22.30;99.90
12307;DHT22;6216;51.146;7.008;2022-07-21T08:58:21;22.30;99.90
12307;DHT22;6216;51.146;7.008;2022-07-21T09:00:50;22.50;99.90
12307;DHT22;6216;51.146;7.008;2022-07-21T09:03:19;22.70;99.90
12307;DHT22;6216;51.146;7.008;2022-07-21T09:06:04;22.70;99.90
12307;DHT22;6216;51.146;7.008;2022-07-21T09:08:36;22.70;99.90
12307;DHT22;6216;51.146;7.008;2022-07-21T09:11:12;22.70;99.90
12307;DHT22;6216;51.146;7.008;2022-07-21T09:13:41;22.80;99.90
12307;DHT22;6216;51.146;7.008;2022-07-21T09:16:10;22.80;99.90
12307;DHT22;6216;51.146;7.008;2022-07-21T09:18:47;22.70;99.90
12307;DHT22;6216;51.146;7.008;2022-07-21T09:21:17;22.70;99.90
12307;DHT22;6216;51.146;7.008;2022-07-21T09:23:46;22.70;99.90
12307;DHT22;6216;51.146;7.008;2022-07-21T09:26:14;22.70;99.90
12307;DHT22;6216;51.146;7.008;2022-07-21T09:28:42;22.70;99.90
12307;DHT22;6216;51.146;7.008;2022-07-21T09:31:11;22.80;99.90
12307;DHT22;6216;51.146;7.008;2022-07-21T09:33:42;22.80;99.90
12307;DHT22;6216;51.146;7.008;2022-07-21T09:36:12;23.00;99.90
12307;DHT22;6216;51.146;7.008;2022-07-21T09:38:43;23.20;99.90
12307;DHT22;6216;51.146;7.008;2022-07-21T09:41:13;23.40;99.90
12307;DHT22;6216;51.146;7.008;2022-07-21T09:43:43;23.50;99.90
12307;DHT22;6216;51.146;7.008;2022-07-21T09:46:15;23.50;99.90
12307;DHT22;6216;51.146;7.008;2022-07-21T09:48:46;23.60;99.90
12307;DHT22;6216;51.146;7.008;2022-07-21T09:51:37;23.70;99.90
12307;DHT22;6216;51.146;7.008;2022-07-21T09:54:09;23.50;99.90
12307;DHT22;6216;51.146;7.008;2022-07-21T09:56:38;23.30;99.90
12307;DHT22;6216;51.146;7.008;2022-07-21T09:59:08;23.30;99.90
12307;DHT22;6216;51.146;7.008;2022-07-21T10:01:38;23.10;99.90
12307;DHT22;6216;51.146;7.008;2022-07-21T10:04:07;23.10;99.90
12307;DHT22;6216;51.146;7.008;2022-07-21T10:06:37;23.00;99.90
12307;DHT22;6216;51.146;7.008;2022-07-21T10:09:08;23.10;99.90
12307;DHT22;6216;51.146;7.008;2022-07-21T10:11:39;23.10;99.90
12307;DHT22;6216;51.146;7.008;2022-07-21T10:14:09;23.10;99.90
12307;DHT22;6216;51.146;7.008;2022-07-21T10:16:39;23.10;99.90
12307;DHT22;6216;51.146;7.008;2022-07-21T10:19:21;23.00;99.90
12307;DHT22;6216;51.146;7.008;2022-07-21T10:21:57;22.90;99.90
12307;DHT22;6216;51.146;7.008;2022-07-21T10:24:28;22.90;99.90
12307;DHT22;6216;51.146;7.008;2022-07-21T10:27:04;23.00;99.90
12307;DHT22;6216;51.146;7.008;2022-07-21T10:29:53;23.10;99.90
12307;DHT22;6216;51.146;7.008;2022-07-21T10:32:30;23.10;99.90
12307;DHT22;6216;51.146;7.008;2022-07-21T10:35:02;22.90;99.90
12307;DHT22;6216;51.146;7.008;2022-07-21T10:37:47;22.80;99.90
12307;DHT22;6216;51.146;7.008;2022-07-21T10:40:35;22.60;99.90
12307;DHT22;6216;51.146;7.008;2022-07-21T10:43:41;22.50;99.90
12307;DHT22;6216;51.146;7.008;2022-07-21T10:46:37;22.30;99.90
12307;DHT22;6216;51.146;7.008;2022-07-21T10:49:07;22.20;99.90
12307;DHT22;6216;51.146;7.008;2022-07-21T10:51:37;22.00;99.90
12307;DHT22;6216;51.146;7.008;2022-07-21T10:54:22;21.90;99.90
12307;DHT22;6216;51.146;7.008;2022-07-21T10:57:24;21.80;99.90
12307;DHT22;6216;51.146;7.008;2022-07-21T11:00:21;21.80;99.90
12307;DHT22;6216;51.146;7.008;2022-07-21T11:02:52;21.70;99.90
12307;DHT22;6216;51.146;7.008;2022-07-21T11:05:23;21.70;99.90
12307;DHT22;6216;51.146;7.008;2022-07-21T11:08:12;21.70;99.90
12307;DHT22;6216;51.146;7.008;2022-07-21T11:10:42;21.80;99.90
12307;DHT22;6216;51.146;7.008;2022-07-21T11:13:10;22.00;99.90
12307;DHT22;6216;51.146;7.008;2022-07-21T11:15:57;22.00;99.90
12307;DHT22;6216;51.146;7.008;2022-07-21T11:18:27;22.10;99.90
12307;DHT22;6216;51.146;7.008;2022-07-21T11:21:11;22.10;99.90
12307;DHT22;6216;51.146;7.008;2022-07-21T11:23:43;22.10;99.90
12307;DHT22;6216;51.146;7.008;2022-07-21T11:26:14;22.00;99.90
12307;DHT22;6216;51.146;7.008;2022-07-21T11:28:43;22.00;99.90
12307;DHT22;6216;51.146;7.008;2022-07-21T11:31:15;21.90;99.90
12307;DHT22;6216;51.146;7.008;2022-07-21T11:33:45;21.80;99.90
12307;DHT22;6216;51.146;7.008;2022-07-21T11:36:26;21.80;99.90
12307;DHT22;6216;51.146;7.008;2022-07-21T11:38:59;21.70;99.90
12307;DHT22;6216;51.146;7.008;2022-07-21T11:41:27;21.80;99.90
12307;DHT22;6216;51.146;7.008;2022-07-21T11:43:55;21.80;99.90
12307;DHT22;6216;51.146;7.008;2022-07-21T11:46:23;21.60;99.90
12307;DHT22;6216;51.146;7.008;2022-07-21T11:49:01;21.50;99.90
12307;DHT22;6216;51.146;7.008;2022-07-21T11:51:31;21.30;99.90
12307;DHT22;6216;51.146;7.008;2022-07-21T11:53:59;21.10;99.90
12307;DHT22;6216;51.146;7.008;2022-07-21T11:56:27;21.00;99.90
12307;DHT22;6216;51.146;7.008;2022-07-21T11:59:09;20.80;99.90
12307;DHT22;6216;51.146;7.008;2022-07-21T12:01:52;20.70;99.90
12307;DHT22;6216;51.146;7.008;2022-07-21T12:04:29;20.70;99.90
12307;DHT22;6216;51.146;7.008;2022-07-21T12:07:00;20.60;99.90
12307;DHT22;6216;51.146;7.008;2022-07-21T12:09:31;20.70;99.90
12307;DHT22;6216;51.146;7.008;2022-07-21T12:12:00;20.60;99.90
12307;DHT22;6216;51.146;7.008;2022-07-21T12:14:45;20.70;99.90
12307;DHT22;6216;51.146;7.008;2022-07-21T12:17:16;20.70;99.90
12307;DHT22;6216;51.146;7.008;2022-07-21T12:19:44;20.60;99.90
12307;DHT22;6216;51.146;7.008;2022-07-21T12:22:13;20.60;99.90
12307;DHT22;6216;51.146;7.008;2022-07-21T12:24:51;20.50;99.90
12307;DHT22;6216;51.146;7.008;2022-07-21T12:27:20;20.40;99.90
12307;DHT22;6216;51.146;7.008;2022-07-21T12:29:48;20.30;99.90
12307;DHT22;6216;51.146;7.008;2022-07-21T12:32:46;20.10;99.90
12307;DHT22;6216;51.146;7.008;2022-07-21T12:35:25;20.10;99.90
12307;DHT22;6216;51.146;7.008;2022-07-21T12:38:11;20.00;99.90
12307;DHT22;6216;51.146;7.008;2022-07-21T12:40:41;20.00;99.90
12307;DHT22;6216;51.146;7.008;2022-07-21T12:43:29;19.90;99.90
12307;DHT22;6216;51.146;7.008;2022-07-21T12:45:59;19.90;99.90
12307;DHT22;6216;51.146;7.008;2022-07-21T12:48:29;20.00;99.90
12307;DHT22;6216;51.146;7.008;2022-07-21T12:51:00;20.10;99.90
12307;DHT22;6216;51.146;7.008;2022-07-21T12:53:31;20.10;99.90
12307;DHT22;6216;51.146;7.008;2022-07-21T12:55:59;20.10;99.90
12307;DHT22;6216;51.146;7.008;2022-07-21T12:58:27;20.10;99.90
12307;DHT22;6216;51.146;7.008;2022-07-21T13:00:55;20.10;99.90
12307;DHT22;6216;51.146;7.008;2022-07-21T13:03:23;20.00;99.90
12307;DHT22;6216;51.146;7.008;2022-07-21T13:05:57;20.00;99.90
12307;DHT22;6216;51.146;7.008;2022-07-21T13:08:25;20.00;99.90
12307;DHT22;6216;51.146;7.008;2022-07-21T13:10:55;20.00;99.90
12307;DHT22;6216;51.146;7.008;2022-07-21T13:13:24;20.10;99.90
12307;DHT22;6216;51.146;7.008;2022-07-21T13:15:52;20.10;99.90
12307;DHT22;6216;51.146;7.008;2022-07-21T13:18:20;20.00;99.90
12307;DHT22;6216;51.146;7.008;2022-07-21T13:20:49;20.00;99.90
12307;DHT22;6216;51.146;7.008;2022-07-21T13:23:17;20.00;99.90
12307;DHT22;6216;51.146;7.008;2022-07-21T13:25:46;20.00;99.90
12307;DHT22;6216;51.146;7.008;2022-07-21T13:28:31;20.00;99.90
12307;DHT22;6216;51.146;7.008;2022-07-21T13:31:01;19.90;99.90
12307;DHT22;6216;51.146;7.008;2022-07-21T13:33:29;19.80;99.90
12307;DHT22;6216;51.146;7.008;2022-07-21T13:35:57;19.60;99.90
12307;DHT22;6216;51.146;7.008;2022-07-21T13:38:24;19.60;99.90
12307;DHT22;6216;51.146;7.008;2022-07-21T13:40:52;19.50;99.90
12307;DHT22;6216;51.146;7.008;2022-07-21T13:43:41;19.60;99.90
12307;DHT22;6216;51.146;7.008;2022-07-21T13:46:11;19.60;99.90
12307;DHT22;6216;51.146;7.008;2022-07-21T13:48:39;19.50;99.90
12307;DHT22;6216;51.146;7.008;2022-07-21T13:51:10;19.50;99.90
12307;DHT22;6216;51.146;7.008;2022-07-21T13:53:39;19.40;99.90
12307;DHT22;6216;51.146;7.008;2022-07-21T13:56:07;19.40;99.90
12307;DHT22;6216;51.146;7.008;2022-07-21T13:58:36;19.30;99.90
12307;DHT22;6216;51.146;7.008;2022-07-21T14:01:06;19.30;99.90
12307;DHT22;6216;51.146;7.008;2022-07-21T14:03:35;19.30;99.90
12307;DHT22;6216;51.146;7.008;2022-07-21T14:06:03;19.40;99.90
12307;DHT22;6216;51.146;7.008;2022-07-21T14:08:31;19.50;99.90
12307;DHT22;6216;51.146;7.008;2022-07-21T14:10:59;19.50;99.90
12307;DHT22;6216;51.146;7.008;2022-07-21T14:13:27;19.50;99.90
12307;DHT22;6216;51.146;7.008;2022-07-21T14:15:55;19.50;99.90
12307;DHT22;6216;51.146;7.008;2022-07-21T14:18:25;19.60;99.90
12307;DHT22;6216;51.146;7.008;2022-07-21T14:20:53;19.70;99.90
12307;DHT22;6216;51.146;7.008;2022-07-21T14:23:21;19.60;99.90
12307;DHT22;6216;51.146;7.008;2022-07-21T14:25:50;19.60;99.90
12307;DHT22;6216;51.146;7.008;2022-07-21T14:28:19;19.70;99.90
12307;DHT22;6216;51.146;7.008;2022-07-21T14:30:47;19.70;99.90
12307;DHT22;6216;51.146;7.008;2022-07-21T14:33:15;19.80;99.90
12307;DHT22;6216;51.146;7.008;2022-07-21T14:35:44;19.80;99.90
12307;DHT22;6216;51.146;7.008;2022-07-21T14:38:12;19.80;99.90
12307;DHT22;6216;51.146;7.008;2022-07-21T14:40:40;19.80;99.90
12307;DHT22;6216;51.146;7.008;2022-07-21T14:43:08;19.70;99.90
12307;DHT22;6216;51.146;7.008;2022-07-21T14:45:36;19.60;99.90
12307;DHT22;6216;51.146;7.008;2022-07-21T14:48:05;19.50;99.90
12307;DHT22;6216;51.146;7.008;2022-07-21T14:50:34;19.50;99.90
12307;DHT22;6216;51.146;7.008;2022-07-21T14:53:07;19.50;99.90
12307;DHT22;6216;51.146;7.008;2022-07-21T14:55:36;19.50;99.90
12307;DHT22;6216;51.146;7.008;2022-07-21T14:58:10;19.50;99.90
12307;DHT22;6216;51.146;7.008;2022-07-21T15:00:38;19.60;99.90
12307;DHT22;6216;51.146;7.008;2022-07-21T15:03:08;19.60;99.90
12307;DHT22;6216;51.146;7.008;2022-07-21T15:05:36;19.70;99.90
12307;DHT22;6216;51.146;7.008;2022-07-21T15:08:04;19.70;99.90
12307;DHT22;6216;51.146;7.008;2022-07-21T15:10:41;19.60;99.90
12307;DHT22;6216;51.146;7.008;2022-07-21T15:13:09;19.60;99.90
12307;DHT22;6216;51.146;7.008;2022-07-21T15:15:37;19.60;99.90
12307;DHT22;6216;51.146;7.008;2022-07-21T15:18:05;19.70;99.90
12307;DHT22;6216;51.146;7.008;2022-07-21T15:20:33;19.70;99.90
12307;DHT22;6216;51.146;7.008;2022-07-21T15:23:01;19.60;99.90
12307;DHT22;6216;51.146;7.008;2022-07-21T15:25:29;19.60;99.90
12307;DHT22;6216;51.146;7.008;2022-07-21T15:27:58;19.50;99.90
12307;DHT22;6216;51.146;7.008;2022-07-21T15:30:26;19.50;99.90
12307;DHT22;6216;51.146;7.008;2022-07-21T15:32:54;19.50;99.90
12307;DHT22;6216;51.146;7.008;2022-07-21T15:35:22;19.50;99.90
12307;DHT22;6216;51.146;7.008;2022-07-21T15:37:50;19.50;99.90
12307;DHT22;6216;51.146;7.008;2022-07-21T15:40:18;19.50;99.90
12307;DHT22;6216;51.146;7.008;2022-07-21T15:42:46;19.60;99.90
12307;DHT22;6216;51.146;7.008;2022-07-21T15:45:15;19.60;99.90
12307;DHT22;6216;51.146;7.008;2022-07-21T15:47:43;19.60;99.90
12307;DHT22;6216;51.146;7.008;2022-07-21T15:50:11;19.60;99.90
12307;DHT22;6216;51.146;7.008;2022-07-21T15:52:40;19.60;99.90
12307;DHT22;6216;51.146;7.008;2022-07-21T15:55:09;19.50;99.90
12307;DHT22;6216;51.146;7.008;2022-07-21T15:57:37;19.50;99.90
12307;DHT22;6216;51.146;7.008;2022-07-21T16:00:06;19.40;99.90
12307;DHT22;6216;51.146;7.008;2022-07-21T16:02:39;19.40;99.90